createdAt,value
2023-05-11T00:04:33.241Z,12.50
2023-05-11T00:09:54.436Z,12.48
2023-05-11T00:14:46.851Z,12.42
2023-05-11T00:19:46.778Z,12.38
2023-05-11T00:24:46.703Z,12.36
2023-05-11T00:29:46.652Z,12.37
2023-05-11T00:34:46.599Z,12.40
2023-05-11T00:39:46.478Z,12.42
2023-05-11T00:44:46.468Z,12.45
2023-05-11T00:49:46.393Z,12.48
2023-05-11T00:54:46.318Z,12.51
2023-05-11T00:59:46.218Z,12.54
2023-05-11T01:04:46.178Z,12.56
2023-05-11T01:09:46.161Z,12.56
2023-05-11T01:14:46.104Z,12.56
2023-05-11T01:19:45.979Z,12.56
2023-05-11T01:24:45.932Z,12.54
2023-05-11T01:29:45.849Z,12.53
2023-05-11T01:34:45.783Z,12.52
2023-05-11T01:39:45.721Z,12.51
2023-05-11T01:44:45.666Z,12.50
2023-05-11T01:49:45.570Z,12.49
2023-05-11T01:54:45.537Z,12.48
2023-05-11T01:59:45.477Z,12.47
2023-05-11T02:04:45.461Z,12.44
2023-05-11T02:09:45.323Z,12.43
2023-05-11T02:14:45.305Z,12.41
2023-05-11T02:19:45.190Z,12.38
2023-05-11T02:24:45.182Z,12.34
2023-05-11T02:29:45.101Z,12.30
2023-05-11T02:34:45.100Z,12.26
2023-05-11T02:39:44.978Z,12.20
2023-05-11T02:44:44.878Z,12.15
2023-05-11T02:49:44.810Z,12.09
2023-05-11T02:54:44.831Z,12.03
2023-05-11T02:59:44.648Z,12.00
2023-05-11T03:04:45.357Z,11.97
2023-05-11T03:09:44.558Z,11.94
2023-05-11T03:14:44.442Z,11.91
2023-05-11T03:19:44.393Z,11.89
2023-05-11T03:24:44.360Z,11.86
2023-05-11T03:29:44.317Z,11.85
2023-05-11T03:34:44.239Z,11.84
2023-05-11T03:39:44.145Z,11.86
2023-05-11T03:44:44.098Z,11.88
2023-05-11T03:49:44.065Z,11.90
2023-05-11T03:54:43.974Z,11.90
2023-05-11T03:59:43.890Z,11.90
2023-05-11T04:04:43.892Z,11.91
2023-05-11T04:09:43.760Z,11.92
2023-05-11T04:14:43.653Z,11.94
2023-05-11T04:19:58.190Z,11.95
2023-05-11T04:24:50.556Z,11.93
2023-05-11T04:29:50.546Z,11.93
2023-05-11T04:34:50.438Z,11.97
2023-05-11T04:39:50.454Z,12.04
2023-05-11T04:44:50.378Z,12.11
2023-05-11T04:49:50.316Z,12.16
2023-05-11T04:54:50.289Z,12.20
2023-05-11T04:59:50.195Z,12.25
2023-05-11T05:04:50.035Z,12.30
2023-05-11T05:09:50.001Z,12.32
2023-05-11T05:14:49.907Z,12.33
2023-05-11T05:19:49.881Z,12.36
2023-05-11T05:24:49.764Z,12.40
2023-05-11T05:29:49.756Z,12.48
2023-05-11T05:34:49.681Z,12.57
2023-05-11T05:39:49.593Z,12.68
2023-05-11T05:44:49.547Z,12.74
2023-05-11T05:49:49.469Z,12.76
2023-05-11T05:54:49.385Z,12.78
2023-05-11T05:59:49.449Z,12.79
2023-05-11T06:04:49.383Z,12.78
2023-05-11T06:09:49.271Z,12.81
2023-05-11T06:14:49.208Z,12.91
2023-05-11T06:19:49.110Z,13.11
2023-05-11T06:24:49.044Z,13.39
2023-05-11T06:29:49.064Z,13.68
2023-05-11T06:34:48.953Z,14.01
2023-05-11T06:39:48.868Z,14.48
2023-05-11T06:44:48.790Z,15.19
2023-05-11T06:49:48.722Z,16.18
2023-05-11T06:54:48.602Z,17.54
2023-05-11T06:59:48.589Z,18.88
2023-05-11T07:04:48.493Z,19.70
2023-05-11T07:09:48.462Z,20.52
2023-05-11T07:14:48.365Z,21.46
2023-05-11T07:19:48.247Z,22.13
2023-05-11T07:24:48.204Z,22.24
2023-05-11T07:29:48.153Z,21.77
2023-05-11T07:34:48.025Z,21.03
2023-05-11T07:39:48.046Z,20.38
2023-05-11T07:44:47.938Z,19.92
2023-05-11T07:49:47.882Z,19.58
2023-05-11T07:54:47.825Z,19.38
2023-05-11T07:59:47.792Z,19.32
2023-05-11T08:04:47.814Z,19.33
2023-05-11T08:09:47.627Z,19.37
2023-05-11T08:14:47.576Z,19.33
2023-05-11T08:19:47.509Z,19.08
2023-05-11T08:24:47.480Z,18.95
2023-05-11T08:29:47.322Z,18.90
2023-05-11T08:34:48.099Z,18.95
2023-05-11T08:39:48.022Z,19.15
2023-05-11T08:44:47.162Z,19.34
2023-05-11T08:49:47.048Z,19.42
2023-05-11T08:54:47.062Z,19.33
2023-05-11T08:59:47.026Z,19.15
2023-05-11T09:04:48.841Z,18.97
2023-05-11T09:09:46.796Z,18.91
2023-05-11T09:14:46.762Z,18.98
2023-05-11T09:19:46.663Z,19.04
2023-05-11T09:24:46.654Z,19.03
2023-05-11T09:29:51.817Z,19.03
2023-05-11T09:34:47.572Z,19.05
2023-05-11T09:40:14.094Z,19.09
2023-05-11T09:44:47.374Z,19.15
2023-05-11T09:49:46.302Z,19.16
2023-05-11T09:54:46.273Z,19.28
2023-05-11T09:59:46.168Z,19.70
2023-05-11T10:04:46.098Z,20.47
2023-05-11T10:09:45.977Z,21.45
2023-05-11T10:14:45.971Z,22.43
2023-05-11T10:19:45.939Z,23.24
2023-05-11T10:24:45.954Z,23.65
2023-05-11T10:29:45.754Z,23.69
2023-05-11T10:34:45.778Z,23.69
2023-05-11T10:39:47.210Z,23.61
2023-05-11T10:44:45.544Z,23.36
2023-05-11T10:49:45.478Z,22.94
2023-05-11T10:54:45.465Z,22.58
2023-05-11T10:59:45.319Z,22.38
2023-05-11T11:04:45.301Z,22.41
2023-05-11T11:09:45.221Z,22.72
2023-05-11T11:14:45.226Z,23.21
2023-05-11T11:19:45.227Z,23.88
2023-05-11T11:24:45.272Z,24.55
2023-05-11T11:29:44.990Z,25.19
2023-05-11T11:34:45.029Z,25.84
2023-05-11T11:39:44.921Z,26.05
2023-05-11T11:44:44.825Z,25.79
2023-05-11T11:49:44.762Z,25.54
2023-05-11T11:54:44.641Z,25.48
2023-05-11T11:59:44.625Z,25.42
2023-05-11T12:04:44.666Z,25.28
2023-05-11T12:09:44.488Z,25.11
2023-05-11T12:14:44.382Z,24.86
2023-05-11T12:19:44.264Z,24.60
2023-05-11T12:24:44.290Z,24.39
2023-05-11T12:29:44.192Z,24.26
2023-05-11T12:34:44.769Z,24.25
2023-05-11T12:39:44.060Z,24.27
2023-05-11T12:44:43.981Z,24.26
2023-05-11T12:49:44.089Z,24.17
2023-05-11T12:54:43.883Z,24.00
2023-05-11T12:59:43.819Z,23.82
2023-05-11T13:04:43.825Z,23.67
2023-05-11T13:09:43.672Z,23.56
2023-05-11T13:14:43.627Z,23.47
2023-05-11T13:19:43.547Z,23.42
2023-05-11T13:24:43.437Z,23.44
2023-05-11T13:29:43.432Z,23.47
2023-05-11T13:34:43.385Z,23.41
2023-05-11T13:39:43.266Z,23.26
2023-05-11T13:44:44.705Z,23.11
2023-05-11T13:49:43.553Z,22.94
2023-05-11T13:54:43.160Z,22.76
2023-05-11T13:59:44.494Z,22.62
2023-05-11T14:04:43.021Z,22.58
2023-05-11T14:09:43.022Z,22.65
2023-05-11T14:14:42.770Z,22.73
2023-05-11T14:19:42.794Z,22.76
2023-05-11T14:24:42.708Z,22.69
2023-05-11T14:29:44.065Z,22.53
2023-05-11T14:34:42.574Z,22.34
2023-05-11T14:39:42.568Z,22.17
2023-05-11T14:44:42.467Z,22.02
2023-05-11T14:49:42.391Z,21.86
2023-05-11T14:54:42.289Z,21.67
2023-05-11T14:59:55.447Z,21.44
2023-05-11T15:04:43.171Z,21.22
2023-05-11T15:09:42.086Z,20.98
2023-05-11T15:14:42.046Z,20.76
2023-05-11T15:19:41.948Z,20.59
2023-05-11T15:24:41.845Z,20.45
2023-05-11T15:29:42.071Z,20.30
2023-05-11T15:34:54.861Z,20.09
2023-05-11T15:39:42.689Z,19.86
2023-05-11T15:44:41.686Z,19.63
2023-05-11T15:49:41.566Z,19.42
2023-05-11T15:54:41.443Z,19.23
2023-05-11T15:59:41.412Z,19.03
2023-05-11T16:04:41.347Z,18.82
2023-05-11T16:09:41.296Z,18.63
2023-05-11T16:14:41.202Z,18.45
2023-05-11T16:19:41.107Z,18.28
2023-05-11T16:24:41.022Z,18.14
2023-05-11T16:29:40.979Z,18.02
2023-05-11T16:34:40.884Z,17.92
2023-05-11T16:39:41.827Z,17.81
2023-05-11T16:44:40.812Z,17.67
2023-05-11T16:49:40.710Z,17.52
2023-05-11T16:54:40.680Z,17.37
2023-05-11T16:59:40.626Z,17.23
2023-05-11T17:04:40.545Z,17.09
2023-05-11T17:09:40.472Z,16.95
2023-05-11T17:14:40.372Z,16.81
2023-05-11T17:19:40.304Z,16.67
2023-05-11T17:24:40.342Z,16.55
2023-05-11T17:29:40.208Z,16.44
2023-05-11T17:34:40.162Z,16.35
2023-05-11T17:39:40.081Z,16.27
2023-05-11T17:44:39.969Z,16.16
2023-05-11T17:49:39.931Z,16.03
2023-05-11T17:54:45.228Z,15.86
2023-05-11T17:59:39.863Z,15.66
2023-05-11T18:04:39.705Z,15.48
2023-05-11T18:09:39.859Z,15.31
2023-05-11T18:14:39.674Z,15.15
2023-05-11T18:19:39.570Z,15.02
2023-05-11T18:24:39.440Z,14.89
2023-05-11T18:29:39.651Z,14.77
2023-05-11T18:34:39.371Z,14.66
2023-05-11T18:39:39.294Z,14.57
2023-05-11T18:44:39.219Z,14.49
2023-05-11T18:49:39.162Z,14.42
2023-05-11T18:54:39.089Z,14.37
2023-05-11T18:59:39.248Z,14.30
2023-05-11T19:04:39.011Z,14.24
2023-05-11T19:09:38.866Z,14.18
2023-05-11T19:14:38.858Z,14.13
2023-05-11T19:19:38.731Z,14.10
2023-05-11T19:24:38.644Z,14.07
2023-05-11T19:29:38.583Z,14.05
2023-05-11T19:34:38.507Z,14.03
2023-05-11T19:39:38.482Z,14.02
2023-05-11T19:44:38.389Z,14.01
2023-05-11T19:49:38.344Z,14.01
2023-05-11T19:54:38.264Z,14.00
2023-05-11T19:59:38.408Z,13.98
2023-05-11T20:04:38.111Z,13.96
2023-05-11T20:09:38.064Z,13.95
2023-05-11T20:14:37.952Z,13.94
2023-05-11T20:19:37.958Z,13.93
2023-05-11T20:24:37.885Z,13.91
2023-05-11T20:29:37.809Z,13.90
2023-05-11T20:34:37.836Z,13.89
2023-05-11T20:39:37.705Z,13.88
2023-05-11T20:44:37.589Z,13.86
2023-05-11T20:49:39.575Z,13.84
2023-05-11T20:54:37.467Z,13.83
2023-05-11T21:04:37.304Z,13.80
2023-05-11T21:09:37.437Z,13.79
2023-05-11T21:14:37.222Z,13.77
2023-05-11T21:19:37.117Z,13.76
2023-05-11T21:24:37.037Z,13.75
2023-05-11T21:29:36.982Z,13.74
2023-05-11T21:34:36.929Z,13.71
2023-05-11T21:39:36.910Z,13.69
2023-05-11T21:44:36.761Z,13.67
2023-05-11T21:49:36.841Z,13.65
2023-05-11T21:54:36.693Z,13.63
2023-05-11T21:59:36.648Z,13.60
2023-05-11T22:04:36.542Z,13.58
2023-05-11T22:09:36.473Z,13.56
2023-05-11T22:14:36.424Z,13.56
2023-05-11T22:19:36.342Z,13.56
2023-05-11T22:24:36.249Z,13.55
2023-05-11T22:29:36.242Z,13.53
2023-05-11T22:34:36.091Z,13.52
2023-05-11T22:39:36.084Z,13.51
2023-05-11T22:44:35.950Z,13.49
2023-05-11T22:49:36.020Z,13.48
2023-05-11T22:54:35.861Z,13.48
2023-05-11T22:59:35.769Z,13.49
2023-05-11T23:04:35.730Z,13.50
2023-05-11T23:09:35.682Z,13.49
2023-05-11T23:14:35.559Z,13.48
2023-05-11T23:19:35.536Z,13.47
2023-05-11T23:24:35.447Z,13.46
2023-05-11T23:29:35.428Z,13.45
2023-05-11T23:34:35.342Z,13.44
2023-05-11T23:39:35.246Z,13.44
2023-05-11T23:44:35.164Z,13.44
2023-05-11T23:49:35.138Z,13.44
2023-05-11T23:54:35.066Z,13.42
2023-05-11T23:59:34.974Z,13.41
